メインページ
METAR-TAF:

METAR-TAF

空港 :

ブカレスト, ルーマニア

アンリ・コアンダ国際空港

緯度: 44-33N, 経度: 026-06E, 海抜: 95m

現時点の気象観測

当レポートは36分前の04:30(UTC)に作成
北東の風 6kt
気温 9°C
湿度 93%
気圧 1017 hPa
視程: 9000m

METAR: LROP 210430Z 04006KT 9000 NSC 09/08 Q1017 NOSIG

時間: 08:06 (05:06 UTC)

予報

当レポートは6時間6分前の23:00(UTC)に作成
予報は21日の 00時(UTC)から 21日の 24時(UTC)まで有効
変向風 4kt
視程: 6000m
21日の 00時(UTC)から 21日の 02時(UTC)まで徐々に
視程: 3000m
確率 40% :
21日の 04時(UTC)から 21日の 06時(UTC)まで一時的に
視程: 0800m
高度300ftの千切れ雲あり
21日の 06時(UTC)から 21日の 08時(UTC)まで徐々に
視程10km以上

TAF: LROP 202300Z 2100/2124 VRB04KT 6000 NSC BECMG 2100/2102 3000 BR PROB40 TEMPO 2104/2106 0800 FG BKN003 BECMG 2106/2108 9999 NSW

4,000以上の空港の気象観測と天気予報(METAR報とTAF報)

利用可能な観測所は地図上に黄色い丸と赤い丸で示す。

丸の上にカーソルを重ねると観測所名を参照できる。

次にクリックすると気象観測と天気予報を参照できる。

マップの切り替え:黒色「×」印の緑ボタンをクリックして拡大、「-」印の緑ボタンをクリックして縮小、緑色の三角印をクリックして隣りの地図に切り替え


METAR-TAF: